sensor_id;sensor_type;location;lat;lon;timestamp;P1;durP1;ratioP1;P2;durP2;ratioP2
49310;SDS011;35177;45.900;5.946;2023-03-19T00:01:41;11.80;;;3.60;;
49310;SDS011;35177;45.900;5.946;2023-03-19T00:04:07;6.65;;;2.75;;
49310;SDS011;35177;45.900;5.946;2023-03-19T00:06:33;7.82;;;3.00;;
49310;SDS011;35177;45.900;5.946;2023-03-19T00:08:58;7.60;;;3.67;;
49310;SDS011;35177;45.900;5.946;2023-03-19T00:11:24;5.75;;;2.67;;
49310;SDS011;35177;45.900;5.946;2023-03-19T00:13:50;6.28;;;3.00;;
49310;SDS011;35177;45.900;5.946;2023-03-19T00:16:15;6.05;;;3.47;;
49310;SDS011;35177;45.900;5.946;2023-03-19T00:18:41;6.60;;;3.00;;
49310;SDS011;35177;45.900;5.946;2023-03-19T00:21:07;9.57;;;3.30;;
49310;SDS011;35177;45.900;5.946;2023-03-19T00:23:32;8.20;;;3.20;;
49310;SDS011;35177;45.900;5.946;2023-03-19T00:25:58;9.95;;;3.38;;
49310;SDS011;35177;45.900;5.946;2023-03-19T00:28:24;11.40;;;3.83;;
49310;SDS011;35177;45.900;5.946;2023-03-19T00:30:50;7.85;;;3.35;;
49310;SDS011;35177;45.900;5.946;2023-03-19T00:33:16;7.20;;;3.90;;
49310;SDS011;35177;45.900;5.946;2023-03-19T00:35:41;14.00;;;4.18;;
49310;SDS011;35177;45.900;5.946;2023-03-19T00:38:06;10.15;;;3.90;;
49310;SDS011;35177;45.900;5.946;2023-03-19T00:40:32;8.35;;;3.35;;
49310;SDS011;35177;45.900;5.946;2023-03-19T00:42:58;8.25;;;4.07;;
49310;SDS011;35177;45.900;5.946;2023-03-19T00:45:23;8.82;;;4.25;;
49310;SDS011;35177;45.900;5.946;2023-03-19T00:47:49;6.07;;;3.80;;
49310;SDS011;35177;45.900;5.946;2023-03-19T00:50:14;9.18;;;3.65;;
49310;SDS011;35177;45.900;5.946;2023-03-19T00:52:40;5.80;;;3.90;;
49310;SDS011;35177;45.900;5.946;2023-03-19T00:55:05;13.13;;;4.93;;
49310;SDS011;35177;45.900;5.946;2023-03-19T00:57:31;9.60;;;4.85;;
49310;SDS011;35177;45.900;5.946;2023-03-19T00:59:57;7.50;;;5.30;;
49310;SDS011;35177;45.900;5.946;2023-03-19T01:02:22;12.40;;;5.95;;
49310;SDS011;35177;45.900;5.946;2023-03-19T01:04:48;10.38;;;4.97;;
49310;SDS011;35177;45.900;5.946;2023-03-19T01:07:13;9.45;;;5.68;;
49310;SDS011;35177;45.900;5.946;2023-03-19T01:09:39;11.18;;;5.57;;
49310;SDS011;35177;45.900;5.946;2023-03-19T01:12:05;11.77;;;5.78;;
49310;SDS011;35177;45.900;5.946;2023-03-19T01:14:31;9.60;;;5.78;;
49310;SDS011;35177;45.900;5.946;2023-03-19T01:16:57;8.90;;;5.35;;
49310;SDS011;35177;45.900;5.946;2023-03-19T01:19:23;12.35;;;6.07;;
49310;SDS011;35177;45.900;5.946;2023-03-19T01:21:48;10.57;;;6.10;;
49310;SDS011;35177;45.900;5.946;2023-03-19T01:24:14;11.13;;;6.13;;
49310;SDS011;35177;45.900;5.946;2023-03-19T01:26:41;13.68;;;6.30;;
49310;SDS011;35177;45.900;5.946;2023-03-19T01:29:07;7.82;;;5.60;;
49310;SDS011;35177;45.900;5.946;2023-03-19T01:31:33;9.15;;;5.75;;
49310;SDS011;35177;45.900;5.946;2023-03-19T01:33:59;9.57;;;5.57;;
49310;SDS011;35177;45.900;5.946;2023-03-19T01:36:26;8.90;;;6.10;;
49310;SDS011;35177;45.900;5.946;2023-03-19T01:38:52;8.45;;;5.65;;
49310;SDS011;35177;45.900;5.946;2023-03-19T01:41:17;11.23;;;6.47;;
49310;SDS011;35177;45.900;5.946;2023-03-19T01:43:43;9.50;;;6.45;;
49310;SDS011;35177;45.900;5.946;2023-03-19T01:46:28;10.38;;;6.07;;
49310;SDS011;35177;45.900;5.946;2023-03-19T01:48:56;12.63;;;6.28;;
49310;SDS011;35177;45.900;5.946;2023-03-19T01:51:28;9.07;;;6.32;;
49310;SDS011;35177;45.900;5.946;2023-03-19T01:53:56;10.27;;;6.22;;
49310;SDS011;35177;45.900;5.946;2023-03-19T01:56:25;9.70;;;5.93;;
49310;SDS011;35177;45.900;5.946;2023-03-19T01:58:57;12.82;;;6.78;;
49310;SDS011;35177;45.900;5.946;2023-03-19T02:01:27;13.15;;;6.05;;
49310;SDS011;35177;45.900;5.946;2023-03-19T02:03:57;11.65;;;6.88;;
49310;SDS011;35177;45.900;5.946;2023-03-19T02:06:23;9.27;;;6.43;;
49310;SDS011;35177;45.900;5.946;2023-03-19T02:08:49;17.38;;;6.65;;
49310;SDS011;35177;45.900;5.946;2023-03-19T02:11:15;10.25;;;6.28;;
49310;SDS011;35177;45.900;5.946;2023-03-19T02:13:42;12.07;;;6.82;;
49310;SDS011;35177;45.900;5.946;2023-03-19T02:16:08;10.77;;;6.38;;
49310;SDS011;35177;45.900;5.946;2023-03-19T02:18:33;8.45;;;5.75;;
49310;SDS011;35177;45.900;5.946;2023-03-19T02:21:04;13.13;;;6.85;;
49310;SDS011;35177;45.900;5.946;2023-03-19T02:26:08;14.88;;;7.07;;
49310;SDS011;35177;45.900;5.946;2023-03-19T02:28:36;11.75;;;7.22;;
49310;SDS011;35177;45.900;5.946;2023-03-19T02:31:06;12.32;;;7.00;;
49310;SDS011;35177;45.900;5.946;2023-03-19T02:33:32;11.95;;;6.82;;
49310;SDS011;35177;45.900;5.946;2023-03-19T02:35:58;10.70;;;6.45;;
49310;SDS011;35177;45.900;5.946;2023-03-19T02:38:24;11.10;;;6.85;;
49310;SDS011;35177;45.900;5.946;2023-03-19T02:40:51;12.45;;;6.38;;
49310;SDS011;35177;45.900;5.946;2023-03-19T02:43:20;12.50;;;7.28;;
49310;SDS011;35177;45.900;5.946;2023-03-19T02:45:46;15.70;;;9.18;;
49310;SDS011;35177;45.900;5.946;2023-03-19T02:48:11;11.40;;;6.93;;
49310;SDS011;35177;45.900;5.946;2023-03-19T02:50:37;10.18;;;6.07;;
49310;SDS011;35177;45.900;5.946;2023-03-19T02:53:02;10.88;;;6.15;;
49310;SDS011;35177;45.900;5.946;2023-03-19T02:55:28;9.75;;;5.72;;
49310;SDS011;35177;45.900;5.946;2023-03-19T02:57:53;7.72;;;5.55;;
49310;SDS011;35177;45.900;5.946;2023-03-19T03:00:19;10.55;;;6.10;;
49310;SDS011;35177;45.900;5.946;2023-03-19T03:02:45;9.18;;;5.88;;
49310;SDS011;35177;45.900;5.946;2023-03-19T03:05:11;8.85;;;5.90;;
49310;SDS011;35177;45.900;5.946;2023-03-19T03:07:37;8.93;;;6.45;;
49310;SDS011;35177;45.900;5.946;2023-03-19T03:10:04;8.00;;;6.22;;
49310;SDS011;35177;45.900;5.946;2023-03-19T03:12:30;9.77;;;6.40;;
49310;SDS011;35177;45.900;5.946;2023-03-19T03:14:56;11.00;;;6.55;;
49310;SDS011;35177;45.900;5.946;2023-03-19T03:17:22;10.50;;;6.53;;
49310;SDS011;35177;45.900;5.946;2023-03-19T03:19:48;11.77;;;6.18;;
49310;SDS011;35177;45.900;5.946;2023-03-19T03:22:13;11.05;;;6.18;;
49310;SDS011;35177;45.900;5.946;2023-03-19T03:24:39;9.45;;;6.15;;
49310;SDS011;35177;45.900;5.946;2023-03-19T03:27:05;11.95;;;6.45;;
49310;SDS011;35177;45.900;5.946;2023-03-19T03:29:30;12.70;;;6.45;;
49310;SDS011;35177;45.900;5.946;2023-03-19T03:31:56;10.18;;;6.28;;
49310;SDS011;35177;45.900;5.946;2023-03-19T03:34:21;9.68;;;6.03;;
49310;SDS011;35177;45.900;5.946;2023-03-19T03:36:47;14.85;;;7.38;;
49310;SDS011;35177;45.900;5.946;2023-03-19T03:39:12;13.02;;;6.78;;
49310;SDS011;35177;45.900;5.946;2023-03-19T03:41:38;18.15;;;6.70;;
49310;SDS011;35177;45.900;5.946;2023-03-19T03:44:04;8.85;;;6.72;;
49310;SDS011;35177;45.900;5.946;2023-03-19T03:46:29;9.52;;;6.90;;
49310;SDS011;35177;45.900;5.946;2023-03-19T03:48:55;12.10;;;6.85;;
49310;SDS011;35177;45.900;5.946;2023-03-19T03:51:21;10.05;;;6.43;;
49310;SDS011;35177;45.900;5.946;2023-03-19T03:53:46;9.90;;;6.45;;
49310;SDS011;35177;45.900;5.946;2023-03-19T03:56:12;10.05;;;6.43;;
49310;SDS011;35177;45.900;5.946;2023-03-19T03:58:37;13.95;;;6.82;;
49310;SDS011;35177;45.900;5.946;2023-03-19T04:01:03;10.02;;;6.43;;
49310;SDS011;35177;45.900;5.946;2023-03-19T04:03:31;14.57;;;6.57;;
49310;SDS011;35177;45.900;5.946;2023-03-19T04:05:56;9.40;;;6.75;;
49310;SDS011;35177;45.900;5.946;2023-03-19T04:08:22;12.20;;;6.95;;
49310;SDS011;35177;45.900;5.946;2023-03-19T04:10:47;13.50;;;7.25;;
49310;SDS011;35177;45.900;5.946;2023-03-19T04:13:13;9.98;;;6.60;;
49310;SDS011;35177;45.900;5.946;2023-03-19T04:15:40;15.13;;;7.40;;
49310;SDS011;35177;45.900;5.946;2023-03-19T04:18:06;12.85;;;6.45;;
49310;SDS011;35177;45.900;5.946;2023-03-19T04:20:32;10.77;;;6.47;;
49310;SDS011;35177;45.900;5.946;2023-03-19T04:22:57;10.70;;;6.47;;
49310;SDS011;35177;45.900;5.946;2023-03-19T04:25:23;12.48;;;6.70;;
49310;SDS011;35177;45.900;5.946;2023-03-19T04:27:49;11.85;;;6.40;;
49310;SDS011;35177;45.900;5.946;2023-03-19T04:30:14;11.70;;;6.90;;
49310;SDS011;35177;45.900;5.946;2023-03-19T04:32:40;11.90;;;6.75;;
49310;SDS011;35177;45.900;5.946;2023-03-19T04:35:05;10.20;;;7.03;;
49310;SDS011;35177;45.900;5.946;2023-03-19T04:37:32;14.50;;;7.32;;
49310;SDS011;35177;45.900;5.946;2023-03-19T04:39:57;11.30;;;6.95;;
49310;SDS011;35177;45.900;5.946;2023-03-19T04:42:23;11.75;;;6.32;;
49310;SDS011;35177;45.900;5.946;2023-03-19T04:44:49;13.10;;;6.95;;
49310;SDS011;35177;45.900;5.946;2023-03-19T04:47:14;12.55;;;6.50;;
49310;SDS011;35177;45.900;5.946;2023-03-19T04:49:39;8.32;;;5.85;;
49310;SDS011;35177;45.900;5.946;2023-03-19T04:52:05;14.02;;;5.90;;
49310;SDS011;35177;45.900;5.946;2023-03-19T04:54:31;12.73;;;6.78;;
49310;SDS011;35177;45.900;5.946;2023-03-19T04:56:56;9.57;;;5.72;;
49310;SDS011;35177;45.900;5.946;2023-03-19T04:59:22;13.02;;;6.30;;
49310;SDS011;35177;45.900;5.946;2023-03-19T05:01:47;10.63;;;5.70;;
49310;SDS011;35177;45.900;5.946;2023-03-19T05:04:13;9.18;;;5.45;;
49310;SDS011;35177;45.900;5.946;2023-03-19T05:06:38;15.43;;;5.80;;
49310;SDS011;35177;45.900;5.946;2023-03-19T05:09:05;14.60;;;6.55;;
49310;SDS011;35177;45.900;5.946;2023-03-19T05:11:31;10.48;;;6.07;;
49310;SDS011;35177;45.900;5.946;2023-03-19T05:13:57;12.02;;;6.30;;
49310;SDS011;35177;45.900;5.946;2023-03-19T05:16:22;8.75;;;5.57;;
49310;SDS011;35177;45.900;5.946;2023-03-19T05:18:48;12.75;;;5.80;;
49310;SDS011;35177;45.900;5.946;2023-03-19T05:21:13;8.48;;;5.47;;
49310;SDS011;35177;45.900;5.946;2023-03-19T05:23:39;13.05;;;5.90;;
49310;SDS011;35177;45.900;5.946;2023-03-19T05:26:05;8.05;;;5.18;;
49310;SDS011;35177;45.900;5.946;2023-03-19T05:28:31;9.93;;;5.53;;
49310;SDS011;35177;45.900;5.946;2023-03-19T05:30:57;9.93;;;5.88;;
49310;SDS011;35177;45.900;5.946;2023-03-19T05:33:23;11.25;;;6.20;;
49310;SDS011;35177;45.900;5.946;2023-03-19T05:35:48;13.13;;;5.88;;
49310;SDS011;35177;45.900;5.946;2023-03-19T05:38:15;12.35;;;6.35;;
49310;SDS011;35177;45.900;5.946;2023-03-19T05:40:41;10.48;;;5.40;;
49310;SDS011;35177;45.900;5.946;2023-03-19T05:43:07;9.48;;;5.72;;
49310;SDS011;35177;45.900;5.946;2023-03-19T05:45:33;14.73;;;6.40;;
49310;SDS011;35177;45.900;5.946;2023-03-19T05:48:00;14.65;;;8.20;;
49310;SDS011;35177;45.900;5.946;2023-03-19T05:50:25;15.50;;;7.93;;
49310;SDS011;35177;45.900;5.946;2023-03-19T05:52:51;9.98;;;6.90;;
49310;SDS011;35177;45.900;5.946;2023-03-19T05:55:16;10.38;;;6.30;;
49310;SDS011;35177;45.900;5.946;2023-03-19T05:57:42;10.68;;;6.90;;
49310;SDS011;35177;45.900;5.946;2023-03-19T06:00:07;12.00;;;6.60;;
49310;SDS011;35177;45.900;5.946;2023-03-19T06:02:36;13.15;;;6.68;;
49310;SDS011;35177;45.900;5.946;2023-03-19T06:05:02;9.57;;;6.07;;
49310;SDS011;35177;45.900;5.946;2023-03-19T06:07:28;9.32;;;6.07;;
49310;SDS011;35177;45.900;5.946;2023-03-19T06:09:54;9.75;;;5.82;;
49310;SDS011;35177;45.900;5.946;2023-03-19T06:12:19;8.52;;;5.93;;
49310;SDS011;35177;45.900;5.946;2023-03-19T06:14:45;11.95;;;6.72;;
49310;SDS011;35177;45.900;5.946;2023-03-19T06:17:12;15.63;;;7.90;;
49310;SDS011;35177;45.900;5.946;2023-03-19T06:19:37;11.30;;;5.95;;
49310;SDS011;35177;45.900;5.946;2023-03-19T06:22:03;9.27;;;6.07;;
49310;SDS011;35177;45.900;5.946;2023-03-19T06:24:28;8.05;;;5.45;;
49310;SDS011;35177;45.900;5.946;2023-03-19T06:26:54;11.88;;;5.50;;
49310;SDS011;35177;45.900;5.946;2023-03-19T06:29:20;13.35;;;5.85;;
49310;SDS011;35177;45.900;5.946;2023-03-19T06:31:46;10.75;;;5.85;;
49310;SDS011;35177;45.900;5.946;2023-03-19T06:34:11;14.05;;;6.50;;
49310;SDS011;35177;45.900;5.946;2023-03-19T06:36:37;13.02;;;7.65;;
49310;SDS011;35177;45.900;5.946;2023-03-19T06:39:03;8.48;;;5.75;;
49310;SDS011;35177;45.900;5.946;2023-03-19T06:41:28;7.70;;;5.63;;
49310;SDS011;35177;45.900;5.946;2023-03-19T06:43:54;9.50;;;5.63;;
49310;SDS011;35177;45.900;5.946;2023-03-19T06:46:20;10.40;;;6.88;;
49310;SDS011;35177;45.900;5.946;2023-03-19T06:48:45;10.50;;;6.13;;
49310;SDS011;35177;45.900;5.946;2023-03-19T06:51:11;5.95;;;5.13;;
49310;SDS011;35177;45.900;5.946;2023-03-19T06:53:36;8.40;;;5.30;;
49310;SDS011;35177;45.900;5.946;2023-03-19T06:56:02;9.93;;;6.13;;
49310;SDS011;35177;45.900;5.946;2023-03-19T06:58:28;7.60;;;5.72;;
49310;SDS011;35177;45.900;5.946;2023-03-19T07:00:53;10.77;;;5.70;;
49310;SDS011;35177;45.900;5.946;2023-03-19T07:03:19;12.05;;;6.00;;
49310;SDS011;35177;45.900;5.946;2023-03-19T07:05:46;8.73;;;5.97;;
49310;SDS011;35177;45.900;5.946;2023-03-19T07:08:14;10.77;;;6.10;;
49310;SDS011;35177;45.900;5.946;2023-03-19T07:10:39;13.50;;;6.35;;
49310;SDS011;35177;45.900;5.946;2023-03-19T07:13:05;11.93;;;6.93;;
49310;SDS011;35177;45.900;5.946;2023-03-19T07:15:31;11.30;;;6.25;;
49310;SDS011;35177;45.900;5.946;2023-03-19T07:17:56;9.00;;;6.80;;
49310;SDS011;35177;45.900;5.946;2023-03-19T07:20:22;10.52;;;6.95;;
49310;SDS011;35177;45.900;5.946;2023-03-19T07:22:50;12.32;;;6.60;;
49310;SDS011;35177;45.900;5.946;2023-03-19T07:25:16;11.32;;;6.93;;
49310;SDS011;35177;45.900;5.946;2023-03-19T07:27:41;11.00;;;6.63;;
49310;SDS011;35177;45.900;5.946;2023-03-19T07:30:07;10.43;;;6.13;;
49310;SDS011;35177;45.900;5.946;2023-03-19T07:32:33;9.73;;;6.40;;
49310;SDS011;35177;45.900;5.946;2023-03-19T07:34:59;10.68;;;6.72;;
49310;SDS011;35177;45.900;5.946;2023-03-19T07:37:24;13.40;;;6.57;;
49310;SDS011;35177;45.900;5.946;2023-03-19T07:39:50;10.55;;;6.47;;
49310;SDS011;35177;45.900;5.946;2023-03-19T07:42:16;8.73;;;6.00;;
49310;SDS011;35177;45.900;5.946;2023-03-19T07:44:42;17.00;;;9.43;;
49310;SDS011;35177;45.900;5.946;2023-03-19T07:47:07;12.93;;;7.22;;
49310;SDS011;35177;45.900;5.946;2023-03-19T07:49:33;11.07;;;5.97;;
49310;SDS011;35177;45.900;5.946;2023-03-19T07:51:58;12.10;;;7.40;;
49310;SDS011;35177;45.900;5.946;2023-03-19T07:54:24;11.70;;;7.57;;
49310;SDS011;35177;45.900;5.946;2023-03-19T07:56:49;12.05;;;6.82;;
49310;SDS011;35177;45.900;5.946;2023-03-19T07:59:15;7.68;;;6.63;;
49310;SDS011;35177;45.900;5.946;2023-03-19T08:01:40;9.98;;;6.47;;
49310;SDS011;35177;45.900;5.946;2023-03-19T08:04:06;8.50;;;6.53;;
49310;SDS011;35177;45.900;5.946;2023-03-19T08:06:32;10.25;;;6.70;;
49310;SDS011;35177;45.900;5.946;2023-03-19T08:08:58;10.30;;;6.72;;
49310;SDS011;35177;45.900;5.946;2023-03-19T08:11:23;13.13;;;6.32;;
49310;SDS011;35177;45.900;5.946;2023-03-19T08:13:49;10.98;;;6.78;;
49310;SDS011;35177;45.900;5.946;2023-03-19T08:16:15;11.52;;;5.78;;
49310;SDS011;35177;45.900;5.946;2023-03-19T08:18:40;11.52;;;5.97;;
49310;SDS011;35177;45.900;5.946;2023-03-19T08:21:06;8.68;;;5.88;;
49310;SDS011;35177;45.900;5.946;2023-03-19T08:23:32;11.60;;;6.55;;
49310;SDS011;35177;45.900;5.946;2023-03-19T08:25:57;21.83;;;13.45;;
49310;SDS011;35177;45.900;5.946;2023-03-19T08:28:23;17.67;;;10.80;;
49310;SDS011;35177;45.900;5.946;2023-03-19T08:30:48;44.25;;;22.95;;
49310;SDS011;35177;45.900;5.946;2023-03-19T08:33:14;14.98;;;9.60;;
49310;SDS011;35177;45.900;5.946;2023-03-19T08:35:39;14.73;;;7.20;;
49310;SDS011;35177;45.900;5.946;2023-03-19T08:38:05;14.02;;;6.82;;
49310;SDS011;35177;45.900;5.946;2023-03-19T08:40:31;12.38;;;7.15;;
49310;SDS011;35177;45.900;5.946;2023-03-19T08:42:56;15.27;;;6.85;;
49310;SDS011;35177;45.900;5.946;2023-03-19T08:45:22;11.40;;;7.22;;
49310;SDS011;35177;45.900;5.946;2023-03-19T08:47:48;12.82;;;7.15;;
49310;SDS011;35177;45.900;5.946;2023-03-19T08:50:13;10.38;;;6.65;;
49310;SDS011;35177;45.900;5.946;2023-03-19T08:52:40;12.80;;;7.05;;
49310;SDS011;35177;45.900;5.946;2023-03-19T08:55:06;8.60;;;5.93;;
49310;SDS011;35177;45.900;5.946;2023-03-19T08:57:32;12.65;;;6.82;;
49310;SDS011;35177;45.900;5.946;2023-03-19T08:59:58;12.77;;;6.13;;
49310;SDS011;35177;45.900;5.946;2023-03-19T09:02:23;10.73;;;6.30;;
49310;SDS011;35177;45.900;5.946;2023-03-19T09:04:49;10.13;;;6.38;;
49310;SDS011;35177;45.900;5.946;2023-03-19T09:07:15;10.68;;;5.80;;
49310;SDS011;35177;45.900;5.946;2023-03-19T09:09:41;9.55;;;6.07;;
49310;SDS011;35177;45.900;5.946;2023-03-19T09:12:08;10.40;;;6.18;;
49310;SDS011;35177;45.900;5.946;2023-03-19T09:14:35;7.18;;;5.45;;
49310;SDS011;35177;45.900;5.946;2023-03-19T09:17:02;12.85;;;5.82;;
49310;SDS011;35177;45.900;5.946;2023-03-19T09:19:29;8.50;;;5.10;;
49310;SDS011;35177;45.900;5.946;2023-03-19T09:21:54;9.73;;;5.97;;
49310;SDS011;35177;45.900;5.946;2023-03-19T09:24:20;9.93;;;6.03;;
49310;SDS011;35177;45.900;5.946;2023-03-19T09:26:45;9.18;;;5.53;;
49310;SDS011;35177;45.900;5.946;2023-03-19T09:29:11;10.63;;;5.65;;
49310;SDS011;35177;45.900;5.946;2023-03-19T09:31:37;13.13;;;6.15;;
49310;SDS011;35177;45.900;5.946;2023-03-19T09:34:05;8.25;;;5.10;;
49310;SDS011;35177;45.900;5.946;2023-03-19T09:36:32;13.43;;;5.40;;
49310;SDS011;35177;45.900;5.946;2023-03-19T09:38:58;11.20;;;5.85;;
49310;SDS011;35177;45.900;5.946;2023-03-19T09:44:03;9.20;;;5.20;;
49310;SDS011;35177;45.900;5.946;2023-03-19T09:54:26;11.80;;;5.35;;
49310;SDS011;35177;45.900;5.946;2023-03-19T09:56:56;10.75;;;6.57;;
49310;SDS011;35177;45.900;5.946;2023-03-19T09:59:23;13.32;;;5.45;;
49310;SDS011;35177;45.900;5.946;2023-03-19T10:01:57;9.68;;;5.38;;
49310;SDS011;35177;45.900;5.946;2023-03-19T10:06:52;7.70;;;5.40;;
49310;SDS011;35177;45.900;5.946;2023-03-19T10:09:43;7.28;;;4.93;;
49310;SDS011;35177;45.900;5.946;2023-03-19T10:17:42;10.32;;;5.45;;
49310;SDS011;35177;45.900;5.946;2023-03-19T10:20:13;6.67;;;5.23;;
49310;SDS011;35177;45.900;5.946;2023-03-19T10:22:49;8.60;;;5.13;;
49310;SDS011;35177;45.900;5.946;2023-03-19T10:25:20;9.98;;;5.90;;
49310;SDS011;35177;45.900;5.946;2023-03-19T10:27:49;6.70;;;4.75;;
49310;SDS011;35177;45.900;5.946;2023-03-19T10:30:20;9.02;;;5.68;;
49310;SDS011;35177;45.900;5.946;2023-03-19T10:32:49;11.38;;;5.18;;
49310;SDS011;35177;45.900;5.946;2023-03-19T10:35:22;11.93;;;5.47;;
49310;SDS011;35177;45.900;5.946;2023-03-19T10:37:52;9.52;;;5.35;;
49310;SDS011;35177;45.900;5.946;2023-03-19T10:40:54;9.13;;;4.57;;
49310;SDS011;35177;45.900;5.946;2023-03-19T10:43:30;6.72;;;4.32;;
49310;SDS011;35177;45.900;5.946;2023-03-19T10:45:56;8.10;;;5.07;;
49310;SDS011;35177;45.900;5.946;2023-03-19T10:48:21;9.15;;;4.85;;
49310;SDS011;35177;45.900;5.946;2023-03-19T10:50:59;6.85;;;4.82;;
49310;SDS011;35177;45.900;5.946;2023-03-19T10:55:59;8.95;;;4.40;;
49310;SDS011;35177;45.900;5.946;2023-03-19T10:58:26;6.07;;;4.03;;
49310;SDS011;35177;45.900;5.946;2023-03-19T11:00:57;7.15;;;4.10;;
49310;SDS011;35177;45.900;5.946;2023-03-19T11:03:50;9.05;;;4.43;;
49310;SDS011;35177;45.900;5.946;2023-03-19T11:06:27;6.82;;;4.50;;
49310;SDS011;35177;45.900;5.946;2023-03-19T11:09:00;9.52;;;5.38;;
49310;SDS011;35177;45.900;5.946;2023-03-19T11:13:58;11.38;;;4.93;;
49310;SDS011;35177;45.900;5.946;2023-03-19T11:16:29;7.95;;;5.13;;
49310;SDS011;35177;45.900;5.946;2023-03-19T11:18:55;7.40;;;4.53;;
49310;SDS011;35177;45.900;5.946;2023-03-19T11:21:29;9.05;;;4.93;;
49310;SDS011;35177;45.900;5.946;2023-03-19T11:24:01;6.20;;;4.30;;
49310;SDS011;35177;45.900;5.946;2023-03-19T11:26:27;6.90;;;4.00;;
49310;SDS011;35177;45.900;5.946;2023-03-19T11:28:53;7.03;;;3.70;;
49310;SDS011;35177;45.900;5.946;2023-03-19T11:34:39;7.38;;;3.92;;
49310;SDS011;35177;45.900;5.946;2023-03-19T11:37:04;6.25;;;3.92;;
49310;SDS011;35177;45.900;5.946;2023-03-19T11:42:54;5.18;;;3.63;;
49310;SDS011;35177;45.900;5.946;2023-03-19T11:51:02;6.60;;;4.00;;
49310;SDS011;35177;45.900;5.946;2023-03-19T12:10:14;4.07;;;2.30;;
49310;SDS011;35177;45.900;5.946;2023-03-19T12:18:32;2.60;;;1.70;;
49310;SDS011;35177;45.900;5.946;2023-03-19T12:43:04;3.33;;;1.50;;
49310;SDS011;35177;45.900;5.946;2023-03-19T12:45:33;3.28;;;1.80;;
49310;SDS011;35177;45.900;5.946;2023-03-19T12:48:09;3.58;;;1.40;;
49310;SDS011;35177;45.900;5.946;2023-03-19T12:50:37;6.85;;;1.60;;
49310;SDS011;35177;45.900;5.946;2023-03-19T12:53:06;2.22;;;1.08;;
49310;SDS011;35177;45.900;5.946;2023-03-19T12:55:43;5.05;;;1.40;;
49310;SDS011;35177;45.900;5.946;2023-03-19T12:58:15;3.30;;;1.50;;
49310;SDS011;35177;45.900;5.946;2023-03-19T13:00:50;2.72;;;1.27;;
49310;SDS011;35177;45.900;5.946;2023-03-19T13:08:56;3.28;;;1.58;;
49310;SDS011;35177;45.900;5.946;2023-03-19T13:11:47;4.75;;;1.70;;
49310;SDS011;35177;45.900;5.946;2023-03-19T13:16:49;3.08;;;1.40;;
49310;SDS011;35177;45.900;5.946;2023-03-19T13:19:42;2.45;;;1.23;;
49310;SDS011;35177;45.900;5.946;2023-03-19T13:22:11;2.55;;;1.27;;
49310;SDS011;35177;45.900;5.946;2023-03-19T13:24:39;3.53;;;1.58;;
49310;SDS011;35177;45.900;5.946;2023-03-19T13:27:10;2.40;;;1.10;;
49310;SDS011;35177;45.900;5.946;2023-03-19T13:29:38;2.38;;;1.27;;
49310;SDS011;35177;45.900;5.946;2023-03-19T13:32:33;2.05;;;1.40;;
49310;SDS011;35177;45.900;5.946;2023-03-19T13:36:00;2.20;;;1.30;;
49310;SDS011;35177;45.900;5.946;2023-03-19T13:40:56;3.08;;;1.63;;
49310;SDS011;35177;45.900;5.946;2023-03-19T13:53:37;5.13;;;1.15;;
49310;SDS011;35177;45.900;5.946;2023-03-19T13:56:10;3.80;;;1.10;;
49310;SDS011;35177;45.900;5.946;2023-03-19T14:01:51;3.45;;;0.95;;
49310;SDS011;35177;45.900;5.946;2023-03-19T14:04:17;4.10;;;0.82;;
49310;SDS011;35177;45.900;5.946;2023-03-19T14:06:48;1.73;;;1.00;;
49310;SDS011;35177;45.900;5.946;2023-03-19T14:14:51;1.60;;;0.90;;
49310;SDS011;35177;45.900;5.946;2023-03-19T14:25:24;1.30;;;0.55;;
49310;SDS011;35177;45.900;5.946;2023-03-19T14:27:54;0.93;;;0.88;;
49310;SDS011;35177;45.900;5.946;2023-03-19T14:32:48;2.17;;;0.88;;
49310;SDS011;35177;45.900;5.946;2023-03-19T14:35:15;0.93;;;0.80;;
49310;SDS011;35177;45.900;5.946;2023-03-19T14:37:48;1.73;;;1.08;;
49310;SDS011;35177;45.900;5.946;2023-03-19T14:40:19;1.90;;;0.80;;
49310;SDS011;35177;45.900;5.946;2023-03-19T14:56:33;2.78;;;1.00;;
49310;SDS011;35177;45.900;5.946;2023-03-19T14:59:00;2.00;;;1.00;;
49310;SDS011;35177;45.900;5.946;2023-03-19T15:01:28;2.47;;;0.90;;
49310;SDS011;35177;45.900;5.946;2023-03-19T15:03:56;1.92;;;1.35;;
49310;SDS011;35177;45.900;5.946;2023-03-19T15:06:24;3.05;;;1.20;;
49310;SDS011;35177;45.900;5.946;2023-03-19T15:08:50;2.13;;;1.77;;
49310;SDS011;35177;45.900;5.946;2023-03-19T15:11:23;4.22;;;1.77;;
49310;SDS011;35177;45.900;5.946;2023-03-19T15:17:08;1.77;;;1.23;;
49310;SDS011;35177;45.900;5.946;2023-03-19T15:19:40;1.67;;;1.13;;
49310;SDS011;35177;45.900;5.946;2023-03-19T15:25:03;3.67;;;1.20;;
49310;SDS011;35177;45.900;5.946;2023-03-19T15:27:30;1.85;;;1.10;;
49310;SDS011;35177;45.900;5.946;2023-03-19T15:29:56;2.33;;;1.48;;
49310;SDS011;35177;45.900;5.946;2023-03-19T15:34:56;2.50;;;1.20;;
49310;SDS011;35177;45.900;5.946;2023-03-19T15:37:22;6.05;;;2.10;;
49310;SDS011;35177;45.900;5.946;2023-03-19T15:39:48;8.10;;;2.22;;
49310;SDS011;35177;45.900;5.946;2023-03-19T15:42:15;7.28;;;2.50;;
49310;SDS011;35177;45.900;5.946;2023-03-19T15:44:43;7.30;;;3.13;;
49310;SDS011;35177;45.900;5.946;2023-03-19T15:47:12;3.65;;;1.60;;
49310;SDS011;35177;45.900;5.946;2023-03-19T15:49:49;1.45;;;1.20;;
49310;SDS011;35177;45.900;5.946;2023-03-19T15:52:21;3.55;;;1.90;;
49310;SDS011;35177;45.900;5.946;2023-03-19T15:54:46;3.83;;;1.75;;
49310;SDS011;35177;45.900;5.946;2023-03-19T15:57:13;7.30;;;2.45;;
49310;SDS011;35177;45.900;5.946;2023-03-19T15:59:40;6.90;;;3.65;;
49310;SDS011;35177;45.900;5.946;2023-03-19T16:04:49;6.68;;;2.75;;
49310;SDS011;35177;45.900;5.946;2023-03-19T16:07:23;2.58;;;1.95;;
49310;SDS011;35177;45.900;5.946;2023-03-19T16:09:50;2.33;;;1.50;;
49310;SDS011;35177;45.900;5.946;2023-03-19T16:12:49;9.10;;;4.22;;
49310;SDS011;35177;45.900;5.946;2023-03-19T16:15:46;3.53;;;2.33;;
49310;SDS011;35177;45.900;5.946;2023-03-19T16:20:47;6.40;;;3.72;;
49310;SDS011;35177;45.900;5.946;2023-03-19T16:23:54;4.40;;;1.88;;
49310;SDS011;35177;45.900;5.946;2023-03-19T16:26:24;3.40;;;1.77;;
49310;SDS011;35177;45.900;5.946;2023-03-19T16:28:55;2.97;;;1.25;;
49310;SDS011;35177;45.900;5.946;2023-03-19T16:31:24;3.92;;;2.08;;
49310;SDS011;35177;45.900;5.946;2023-03-19T16:33:52;7.28;;;5.13;;
49310;SDS011;35177;45.900;5.946;2023-03-19T16:36:18;3.10;;;2.38;;
49310;SDS011;35177;45.900;5.946;2023-03-19T16:38:55;2.97;;;2.50;;
49310;SDS011;35177;45.900;5.946;2023-03-19T16:41:28;6.78;;;6.07;;
49310;SDS011;35177;45.900;5.946;2023-03-19T16:43:58;7.43;;;5.68;;
49310;SDS011;35177;45.900;5.946;2023-03-19T16:46:25;3.10;;;1.85;;
49310;SDS011;35177;45.900;5.946;2023-03-19T16:48:52;3.80;;;1.48;;
49310;SDS011;35177;45.900;5.946;2023-03-19T16:51:18;3.25;;;1.52;;
49310;SDS011;35177;45.900;5.946;2023-03-19T16:53:44;1.88;;;1.55;;
49310;SDS011;35177;45.900;5.946;2023-03-19T16:56:13;2.60;;;1.35;;
49310;SDS011;35177;45.900;5.946;2023-03-19T16:58:40;3.60;;;1.60;;
49310;SDS011;35177;45.900;5.946;2023-03-19T17:03:44;2.13;;;1.63;;
49310;SDS011;35177;45.900;5.946;2023-03-19T17:06:10;4.82;;;2.05;;
49310;SDS011;35177;45.900;5.946;2023-03-19T17:08:37;5.88;;;2.50;;
49310;SDS011;35177;45.900;5.946;2023-03-19T17:11:03;5.32;;;3.60;;
49310;SDS011;35177;45.900;5.946;2023-03-19T17:13:29;6.97;;;4.03;;
49310;SDS011;35177;45.900;5.946;2023-03-19T17:15:56;6.05;;;3.80;;
49310;SDS011;35177;45.900;5.946;2023-03-19T17:18:25;5.78;;;3.83;;